createdAt,value
2024-02-24T00:02:26.312Z,80.22
2024-02-24T00:04:53.386Z,79.44
2024-02-24T00:07:20.460Z,79.89
2024-02-24T00:09:47.468Z,79.60
2024-02-24T00:12:14.608Z,79.39
2024-02-24T00:14:41.663Z,78.91
2024-02-24T00:17:08.789Z,79.35
2024-02-24T00:19:35.849Z,79.31
2024-02-24T00:22:02.804Z,79.90
2024-02-24T00:24:29.828Z,81.17
2024-02-24T00:26:56.918Z,80.59
2024-02-24T00:29:23.977Z,79.73
2024-02-24T00:31:51.094Z,79.29
2024-02-24T00:34:18.189Z,79.24
2024-02-24T00:36:45.259Z,80.08
2024-02-24T00:39:12.970Z,83.16
2024-02-24T00:41:40.077Z,84.20
2024-02-24T00:44:07.749Z,86.17
2024-02-24T00:46:34.769Z,89.39
2024-02-24T00:49:01.766Z,90.15
2024-02-24T00:51:28.805Z,90.99
2024-02-24T00:53:56.239Z,90.56
2024-02-24T00:56:23.248Z,89.04
2024-02-24T00:58:50.349Z,90.39
2024-02-24T01:01:17.408Z,89.76
2024-02-24T01:03:44.553Z,89.50
2024-02-24T01:06:11.556Z,89.67
2024-02-24T01:08:38.596Z,90.11
2024-02-24T01:11:07.720Z,90.05
2024-02-24T01:13:34.872Z,91.10
2024-02-24T01:16:01.978Z,92.08
2024-02-24T01:18:29.774Z,90.53
2024-02-24T01:20:57.016Z,91.42
2024-02-24T01:23:25.630Z,90.00
2024-02-24T01:25:52.768Z,89.45
2024-02-24T01:28:19.869Z,88.48
2024-02-24T01:30:46.932Z,86.44
2024-02-24T01:33:14.334Z,85.30
2024-02-24T01:35:41.403Z,85.98
2024-02-24T01:38:08.640Z,84.76
2024-02-24T01:40:36.235Z,86.25
2024-02-24T01:43:04.259Z,85.10
2024-02-24T01:45:31.294Z,84.78
2024-02-24T01:47:58.749Z,85.04
2024-02-24T01:50:26.448Z,86.72
2024-02-24T01:52:54.101Z,86.92
2024-02-24T01:55:21.189Z,86.79
2024-02-24T01:57:50.468Z,86.00
2024-02-24T02:00:17.623Z,85.72
2024-02-24T02:02:46.865Z,85.43
2024-02-24T02:05:14.787Z,84.38
2024-02-24T02:07:42.220Z,84.07
2024-02-24T02:10:09.650Z,84.46
2024-02-24T02:12:37.371Z,84.32
2024-02-24T02:15:06.022Z,85.24
2024-02-24T02:17:35.823Z,85.37
2024-02-24T02:20:05.161Z,86.89
2024-02-24T02:22:33.388Z,88.19
2024-02-24T02:25:20.234Z,89.91
2024-02-24T02:27:47.123Z,90.41
2024-02-24T02:30:14.131Z,90.15
2024-02-24T02:32:41.188Z,89.81
2024-02-24T02:35:10.884Z,89.89
2024-02-24T02:37:38.303Z,89.52
2024-02-24T02:40:05.763Z,89.52
2024-02-24T02:42:32.778Z,87.94
2024-02-24T02:44:59.761Z,87.21
2024-02-24T02:47:26.797Z,87.72
2024-02-24T02:49:53.861Z,87.44
2024-02-24T02:52:20.973Z,87.48
2024-02-24T02:54:47.997Z,87.67
2024-02-24T02:57:14.964Z,88.70
2024-02-24T02:59:41.989Z,88.56
2024-02-24T03:02:09.075Z,89.86
2024-02-24T03:04:36.052Z,88.89
2024-02-24T03:07:03.129Z,88.26
2024-02-24T03:09:30.134Z,88.59
2024-02-24T03:11:57.259Z,88.77
2024-02-24T03:14:24.414Z,87.96
2024-02-24T03:16:51.475Z,87.16
2024-02-24T03:19:18.557Z,88.66
2024-02-24T03:21:45.491Z,89.67
2024-02-24T03:24:12.749Z,89.60
2024-02-24T03:26:42.770Z,90.33
2024-02-24T03:29:09.982Z,90.75
2024-02-24T03:31:36.930Z,91.50
2024-02-24T03:34:04.186Z,92.45
2024-02-24T03:36:31.349Z,92.11
2024-02-24T03:38:58.366Z,92.13
2024-02-24T03:41:27.201Z,92.37
2024-02-24T03:43:54.187Z,92.33
2024-02-24T03:46:21.260Z,92.61
2024-02-24T03:48:48.356Z,92.35
2024-02-24T03:51:15.732Z,92.56
2024-02-24T03:53:43.411Z,91.72
2024-02-24T03:56:10.559Z,92.15
2024-02-24T03:58:37.609Z,91.37
2024-02-24T04:01:04.778Z,91.35
2024-02-24T04:03:31.796Z,91.23
2024-02-24T04:05:59.115Z,91.73
2024-02-24T04:08:26.365Z,90.84
2024-02-24T04:10:53.589Z,90.51
2024-02-24T04:13:23.679Z,91.04
2024-02-24T04:15:51.656Z,89.18
2024-02-24T04:18:19.223Z,89.49
2024-02-24T04:20:47.068Z,90.05
2024-02-24T04:23:14.930Z,89.95
2024-02-24T04:25:42.017Z,91.14
2024-02-24T04:28:09.637Z,92.39
2024-02-24T04:30:38.833Z,91.28
2024-02-24T04:33:07.002Z,92.82
2024-02-24T04:35:34.403Z,91.91
2024-02-24T04:38:07.154Z,93.18
2024-02-24T04:40:36.814Z,91.64
2024-02-24T04:43:04.110Z,90.68
2024-02-24T04:45:31.212Z,90.14
2024-02-24T04:47:58.346Z,90.11
2024-02-24T04:50:25.685Z,90.65
2024-02-24T04:52:53.403Z,90.75
2024-02-24T04:55:20.455Z,90.98
2024-02-24T04:57:47.618Z,90.60
2024-02-24T05:00:14.840Z,89.66
2024-02-24T05:02:41.881Z,89.04
2024-02-24T05:05:11.147Z,88.52
2024-02-24T05:07:38.415Z,91.16
2024-02-24T05:10:05.695Z,91.08
2024-02-24T05:12:32.714Z,92.57
2024-02-24T05:14:59.681Z,92.65
2024-02-24T05:17:26.858Z,93.14
2024-02-24T05:19:53.854Z,92.42
2024-02-24T05:22:20.869Z,93.24
2024-02-24T05:24:47.873Z,92.17
2024-02-24T05:27:14.929Z,92.28
2024-02-24T05:29:47.335Z,92.82
2024-02-24T05:32:17.756Z,92.84
2024-02-24T05:34:45.090Z,91.91
2024-02-24T05:37:12.553Z,90.68
2024-02-24T05:39:39.726Z,89.06
2024-02-24T05:42:07.461Z,88.07
2024-02-24T05:44:34.983Z,88.50
2024-02-24T05:47:02.086Z,86.93
2024-02-24T05:49:29.232Z,85.81
2024-02-24T05:51:56.553Z,84.66
2024-02-24T05:54:24.551Z,84.91
2024-02-24T05:56:52.084Z,84.66
2024-02-24T05:59:20.231Z,85.04
2024-02-24T06:01:47.364Z,85.40
2024-02-24T06:04:16.902Z,84.51
2024-02-24T06:06:44.409Z,85.29
2024-02-24T06:09:11.665Z,85.37
2024-02-24T06:11:38.958Z,84.93
2024-02-24T06:14:06.023Z,83.15
2024-02-24T06:16:33.054Z,83.88
2024-02-24T06:19:00.475Z,83.64
2024-02-24T06:21:29.426Z,83.36
2024-02-24T06:23:56.547Z,82.99
2024-02-24T06:26:23.614Z,81.88
2024-02-24T06:28:50.654Z,82.54
2024-02-24T06:31:19.266Z,82.58
2024-02-24T06:33:46.503Z,82.69
2024-02-24T06:36:13.632Z,82.55
2024-02-24T06:38:40.671Z,83.12
2024-02-24T06:41:07.732Z,83.28
2024-02-24T06:43:34.901Z,83.82
2024-02-24T06:46:04.097Z,84.06
2024-02-24T06:48:31.312Z,83.36
2024-02-24T06:50:58.536Z,84.24
2024-02-24T06:53:25.592Z,84.81
2024-02-24T06:55:52.672Z,84.78
2024-02-24T06:58:19.615Z,84.74
2024-02-24T07:00:46.759Z,85.44
2024-02-24T07:03:14.052Z,84.49
2024-02-24T07:05:43.068Z,85.42
2024-02-24T07:08:10.141Z,84.95
2024-02-24T07:10:37.220Z,84.52
2024-02-24T07:13:04.487Z,83.02
2024-02-24T07:15:31.455Z,83.69
2024-02-24T07:17:58.591Z,83.32
2024-02-24T07:20:25.719Z,83.58
2024-02-24T07:22:52.753Z,83.22
2024-02-24T07:25:19.851Z,81.63
2024-02-24T07:27:46.903Z,81.01
2024-02-24T07:30:14.472Z,80.30
2024-02-24T07:32:43.664Z,79.58
2024-02-24T07:35:11.252Z,78.27
2024-02-24T07:37:38.415Z,78.23
2024-02-24T07:40:05.950Z,77.65
2024-02-24T07:42:33.046Z,77.25
2024-02-24T07:45:00.275Z,76.47
2024-02-24T07:47:28.921Z,76.87
2024-02-24T07:49:56.027Z,76.32
2024-02-24T07:52:23.090Z,76.02
2024-02-24T07:54:50.490Z,75.80
2024-02-24T07:57:17.555Z,75.83
2024-02-24T07:59:44.596Z,75.64
2024-02-24T08:02:11.718Z,76.12
2024-02-24T08:04:38.769Z,76.05
2024-02-24T08:07:05.956Z,74.79
2024-02-24T08:09:33.113Z,74.63
2024-02-24T08:12:01.055Z,74.20
2024-02-24T08:14:28.316Z,73.50
2024-02-24T08:16:55.299Z,74.11
2024-02-24T08:19:22.334Z,74.40
2024-02-24T08:21:50.230Z,75.74
2024-02-24T08:24:20.212Z,74.96
2024-02-24T08:26:49.182Z,74.80
2024-02-24T08:29:16.424Z,75.48
2024-02-24T08:31:44.097Z,74.35
2024-02-24T08:34:11.637Z,74.29
2024-02-24T08:36:39.281Z,74.04
2024-02-24T08:39:07.334Z,74.20
2024-02-24T08:41:37.643Z,74.12
2024-02-24T08:44:05.522Z,74.08
2024-02-24T08:46:32.854Z,74.77
2024-02-24T08:49:00.141Z,75.00
2024-02-24T08:51:28.405Z,75.44
2024-02-24T08:53:55.826Z,74.33
2024-02-24T08:56:24.135Z,74.65
2024-02-24T08:58:51.560Z,73.17
2024-02-24T09:01:19.982Z,73.98
2024-02-24T09:03:47.300Z,73.56
2024-02-24T09:06:14.738Z,72.79
2024-02-24T09:08:42.112Z,72.11
2024-02-24T09:11:09.252Z,72.45
2024-02-24T09:13:36.446Z,72.76
2024-02-24T09:16:03.763Z,72.41
2024-02-24T09:18:32.671Z,71.79
2024-02-24T09:20:59.829Z,72.72
2024-02-24T09:23:26.893Z,71.47
2024-02-24T09:25:53.895Z,71.45
2024-02-24T09:28:21.472Z,71.13
2024-02-24T09:30:48.462Z,71.54
2024-02-24T09:33:15.772Z,70.89
2024-02-24T09:35:42.883Z,70.51
2024-02-24T09:38:10.025Z,69.78
2024-02-24T09:40:37.322Z,68.61
2024-02-24T09:43:05.812Z,67.79
2024-02-24T09:45:42.959Z,67.38
2024-02-24T09:48:11.885Z,67.33
2024-02-24T09:50:39.857Z,66.05
2024-02-24T09:53:07.032Z,66.14
2024-02-24T09:55:34.537Z,65.23
2024-02-24T09:58:01.992Z,63.51
2024-02-24T10:00:29.082Z,61.90
2024-02-24T10:02:56.871Z,63.14
2024-02-24T10:05:23.971Z,62.97
2024-02-24T10:07:50.972Z,60.96
2024-02-24T10:10:18.515Z,58.85
2024-02-24T10:13:02.939Z,56.95
2024-02-24T10:15:30.669Z,56.46
2024-02-24T10:17:58.752Z,55.66
2024-02-24T10:20:26.902Z,55.63
2024-02-24T10:22:54.472Z,55.45
2024-02-24T10:25:21.745Z,54.92
2024-02-24T10:27:49.083Z,55.36
2024-02-24T10:30:16.573Z,54.72
2024-02-24T10:32:44.389Z,55.17
2024-02-24T10:35:12.229Z,54.14
2024-02-24T10:37:56.868Z,52.88
2024-02-24T10:40:26.581Z,52.83
2024-02-24T10:42:55.131Z,52.74
2024-02-24T10:45:22.487Z,52.39
2024-02-24T10:47:52.660Z,51.65
2024-02-24T10:50:20.625Z,52.43
2024-02-24T10:52:50.239Z,52.38
2024-02-24T10:55:24.052Z,52.40
2024-02-24T10:57:56.075Z,52.34
2024-02-24T11:00:29.538Z,52.46
2024-02-24T11:03:01.484Z,52.17
2024-02-24T11:05:29.169Z,51.73
2024-02-24T11:07:56.372Z,52.00
2024-02-24T11:10:23.935Z,51.92
2024-02-24T11:12:51.866Z,51.48
2024-02-24T11:15:19.999Z,51.76
2024-02-24T11:17:56.887Z,51.87
2024-02-24T11:20:39.439Z,51.74
2024-02-24T11:23:30.605Z,51.21
2024-02-24T11:26:20.890Z,50.87
2024-02-24T11:28:49.921Z,50.44
2024-02-24T11:31:27.425Z,49.92
2024-02-24T11:34:07.057Z,50.48
2024-02-24T11:36:42.175Z,50.57
2024-02-24T11:39:10.605Z,49.78
2024-02-24T11:41:42.539Z,50.14
2024-02-24T11:44:11.624Z,49.48
2024-02-24T11:46:38.945Z,49.49
2024-02-24T11:49:06.131Z,49.41
2024-02-24T11:51:33.363Z,48.94
2024-02-24T11:54:00.683Z,48.83
2024-02-24T11:56:28.354Z,48.22
2024-02-24T11:58:58.246Z,48.00
2024-02-24T12:01:25.439Z,47.46
2024-02-24T12:04:00.624Z,47.21
2024-02-24T12:06:29.628Z,47.42
2024-02-24T12:08:57.642Z,46.79
2024-02-24T12:11:26.108Z,46.99
2024-02-24T12:13:53.221Z,46.69
2024-02-24T12:16:20.701Z,46.14
2024-02-24T12:18:47.941Z,46.32
2024-02-24T12:21:15.751Z,45.95
2024-02-24T12:23:43.375Z,45.95
2024-02-24T12:26:15.943Z,45.99
2024-02-24T12:28:46.602Z,45.97
2024-02-24T12:31:14.996Z,46.26
2024-02-24T12:47:12.554Z,45.66
2024-02-24T12:49:40.132Z,46.25
2024-02-24T12:52:07.148Z,46.79
2024-02-24T12:54:34.134Z,47.80
2024-02-24T12:57:01.340Z,47.52
2024-02-24T13:49:54.255Z,42.30
2024-02-24T13:52:21.226Z,42.36
2024-02-24T13:54:48.212Z,44.14
2024-02-24T13:57:15.180Z,44.66
2024-02-24T13:59:42.155Z,45.00
2024-02-24T14:02:09.255Z,45.34
2024-02-24T14:04:36.352Z,45.19
2024-02-24T14:07:03.828Z,43.63
2024-02-24T14:09:30.844Z,43.24
2024-02-24T14:11:58.272Z,44.10
2024-02-24T14:14:25.310Z,44.24
2024-02-24T14:16:52.472Z,44.17
2024-02-24T14:19:23.557Z,43.54
2024-02-24T14:21:51.172Z,40.75
2024-02-24T14:24:18.138Z,40.60
2024-02-24T14:26:46.475Z,40.48
2024-02-24T14:29:14.003Z,40.37
2024-02-24T14:31:41.056Z,39.54
2024-02-24T14:34:08.203Z,39.42
2024-02-24T14:36:35.432Z,39.70
2024-02-24T14:39:05.030Z,39.68
2024-02-24T14:41:34.062Z,39.21
2024-02-24T14:44:01.420Z,39.92
2024-02-24T14:46:28.576Z,39.44
2024-02-24T14:48:55.849Z,39.93
2024-02-24T14:51:23.529Z,40.08
2024-02-24T14:53:52.574Z,40.23
2024-02-24T14:56:20.249Z,40.06
2024-02-24T14:58:47.555Z,39.97
2024-02-24T15:01:15.737Z,40.40
2024-02-24T15:03:45.793Z,40.65
2024-02-24T15:06:15.542Z,40.91
2024-02-24T15:08:42.948Z,40.91
2024-02-24T15:11:10.265Z,40.59
2024-02-24T15:13:38.125Z,41.06
2024-02-24T15:16:06.382Z,41.44
2024-02-24T15:18:33.709Z,41.37
2024-02-24T15:21:01.011Z,41.40
2024-02-24T15:23:28.069Z,41.92
2024-02-24T15:25:55.470Z,42.23
2024-02-24T15:28:23.267Z,41.89
2024-02-24T15:30:50.309Z,42.80
2024-02-24T15:33:17.482Z,42.49
2024-02-24T16:36:15.785Z,48.43
2024-02-24T16:38:42.753Z,48.81
2024-02-24T16:41:09.745Z,49.38
2024-02-24T16:43:36.809Z,49.99
2024-02-24T16:46:03.990Z,50.51
2024-02-24T16:48:31.130Z,51.31
2024-02-24T16:50:58.321Z,51.97
2024-02-24T16:53:25.437Z,50.71
2024-02-24T16:55:52.467Z,51.65
2024-02-24T16:58:19.545Z,52.31
2024-02-24T17:00:46.659Z,52.50
2024-02-24T17:03:13.768Z,52.97
2024-02-24T17:05:41.398Z,52.67
2024-02-24T17:08:08.347Z,52.41
2024-02-24T17:10:40.547Z,53.03
2024-02-24T17:13:10.800Z,52.80
2024-02-24T17:15:39.587Z,53.08
2024-02-24T17:18:07.224Z,53.72
2024-02-24T17:20:35.721Z,53.89
2024-02-24T17:23:10.315Z,54.19
2024-02-24T17:25:37.353Z,54.95
2024-02-24T17:28:06.833Z,55.08
2024-02-24T17:30:36.982Z,56.93
2024-02-24T17:33:05.346Z,55.64
2024-02-24T17:35:32.542Z,56.03
2024-02-24T17:38:02.534Z,57.15
2024-02-24T17:40:29.601Z,57.07
2024-02-24T17:42:57.796Z,57.43
2024-02-24T17:45:25.004Z,57.84
2024-02-24T17:47:52.141Z,57.81
2024-02-24T17:50:19.254Z,58.00
2024-02-24T17:52:46.271Z,58.08
2024-02-24T17:55:13.458Z,57.98
2024-02-24T17:57:40.455Z,58.59
2024-02-24T18:00:09.017Z,58.59
2024-02-24T18:02:38.447Z,59.58
2024-02-24T18:05:05.918Z,58.92
2024-02-24T18:07:33.004Z,59.08
2024-02-24T18:10:00.051Z,59.08
2024-02-24T18:12:27.128Z,59.32
2024-02-24T18:14:54.405Z,58.26
2024-02-24T18:17:21.477Z,58.30
2024-02-24T18:19:48.572Z,58.95
2024-02-24T18:22:15.636Z,58.82
2024-02-24T18:24:44.951Z,58.79
2024-02-24T18:27:12.824Z,59.22
2024-02-24T18:29:40.285Z,59.44
2024-02-24T18:32:08.023Z,59.50
2024-02-24T18:34:35.355Z,59.85
2024-02-24T18:37:02.520Z,60.00
2024-02-24T18:39:30.315Z,60.45
2024-02-24T18:41:57.405Z,59.63
2024-02-24T18:44:24.510Z,59.66
2024-02-24T18:46:51.704Z,59.78
2024-02-24T18:49:18.711Z,60.70
2024-02-24T18:51:45.724Z,59.96
2024-02-24T18:54:12.862Z,59.89
2024-02-24T18:56:39.967Z,60.15
2024-02-24T18:59:07.152Z,60.92
2024-02-24T19:01:34.144Z,61.34
2024-02-24T19:04:01.236Z,61.71
2024-02-24T19:06:28.431Z,62.73
2024-02-24T19:08:55.567Z,63.13
2024-02-24T19:11:22.812Z,61.59
2024-02-24T19:13:49.812Z,62.61
2024-02-24T19:16:16.808Z,63.03
2024-02-24T19:18:43.978Z,64.26
2024-02-24T19:21:11.023Z,63.77
2024-02-24T19:23:39.003Z,63.54
2024-02-24T19:26:06.101Z,63.58
2024-02-24T19:28:33.112Z,62.76
2024-02-24T19:31:00.131Z,63.78
2024-02-24T19:33:27.429Z,63.71
2024-02-24T19:35:54.814Z,63.72
2024-02-24T19:38:22.186Z,64.43
2024-02-24T19:40:49.459Z,65.40
2024-02-24T19:43:16.940Z,64.55
2024-02-24T19:45:43.964Z,64.44
2024-02-24T19:48:12.598Z,63.97
2024-02-24T19:50:39.696Z,63.62
2024-02-24T19:53:06.721Z,64.03
2024-02-24T19:55:33.772Z,64.70
2024-02-24T19:58:00.752Z,64.37
2024-02-24T20:00:29.619Z,63.74
2024-02-24T20:02:56.879Z,64.43
2024-02-24T20:05:23.924Z,63.72
2024-02-24T20:07:50.921Z,64.69
2024-02-24T20:10:18.171Z,66.05
2024-02-24T20:12:45.193Z,66.72
2024-02-24T20:15:12.349Z,67.09
2024-02-24T20:17:39.377Z,65.86
2024-02-24T20:20:07.005Z,67.19
2024-02-24T20:22:33.869Z,67.66
2024-02-24T20:25:00.875Z,67.34
2024-02-24T20:27:27.851Z,66.38
2024-02-24T20:29:54.962Z,66.81
2024-02-24T20:32:22.287Z,67.23
2024-02-24T20:34:49.486Z,66.81
2024-02-24T20:37:16.642Z,66.63
2024-02-24T20:39:43.661Z,66.84
2024-02-24T20:42:10.675Z,67.43
2024-02-24T20:44:38.782Z,67.53
2024-02-24T20:47:05.834Z,68.39
2024-02-24T20:49:32.882Z,67.77
2024-02-24T20:52:00.915Z,67.76
2024-02-24T20:54:29.949Z,67.89
2024-02-24T20:56:57.425Z,67.52
2024-02-24T20:59:24.842Z,68.01
2024-02-24T21:01:51.819Z,68.48
2024-02-24T21:04:18.899Z,67.76
2024-02-24T21:06:46.078Z,68.28
2024-02-24T21:09:13.244Z,68.08
2024-02-24T21:11:40.414Z,67.33
2024-02-24T21:14:09.078Z,68.17
2024-02-24T21:16:36.900Z,68.52
2024-02-24T21:19:07.209Z,68.36
2024-02-24T21:21:35.710Z,68.55
2024-02-24T21:24:02.870Z,68.59
2024-02-24T21:26:29.920Z,69.07
2024-02-24T21:28:56.882Z,69.07
2024-02-24T21:31:23.766Z,69.65
2024-02-24T21:33:50.977Z,69.76
2024-02-24T21:36:20.428Z,70.19
2024-02-24T21:38:50.686Z,69.87
2024-02-24T21:41:18.576Z,70.36
2024-02-24T21:43:46.613Z,70.68
2024-02-24T21:46:14.042Z,69.84
2024-02-24T21:48:41.308Z,70.84
2024-02-24T21:51:11.075Z,70.59
2024-02-24T21:53:38.075Z,71.72
2024-02-24T21:56:05.232Z,71.58
2024-02-24T21:58:32.392Z,71.43
2024-02-24T22:00:59.596Z,73.24
2024-02-24T22:03:27.649Z,73.12
2024-02-24T22:05:54.883Z,72.55
2024-02-24T22:10:49.080Z,72.46
2024-02-24T22:13:16.342Z,71.84
2024-02-24T22:15:43.473Z,74.34
2024-02-24T22:18:10.652Z,74.11
2024-02-24T22:20:37.725Z,73.46
2024-02-24T22:23:05.320Z,71.89
2024-02-24T22:25:32.314Z,71.20
2024-02-24T22:27:59.576Z,73.24
2024-02-24T22:30:26.625Z,74.35
2024-02-24T22:32:56.001Z,73.96
2024-02-24T22:35:24.142Z,72.62
2024-02-24T22:37:51.206Z,72.74
2024-02-24T22:40:18.468Z,71.79
2024-02-24T22:42:48.515Z,72.22
2024-02-24T22:45:15.556Z,71.94
2024-02-24T22:47:45.120Z,71.72
2024-02-24T22:50:13.924Z,71.89
2024-02-24T22:52:40.897Z,71.96
2024-02-24T22:55:09.786Z,72.69
2024-02-24T22:57:36.951Z,71.91
2024-02-24T23:00:06.210Z,71.65
2024-02-24T23:02:33.381Z,71.17
2024-02-24T23:05:00.510Z,71.27
2024-02-24T23:07:27.666Z,70.55
2024-02-24T23:09:54.865Z,70.24
2024-02-24T23:12:21.987Z,69.75
2024-02-24T23:14:49.094Z,70.68
2024-02-24T23:17:16.189Z,71.28
2024-02-24T23:19:43.580Z,71.80
2024-02-24T23:22:10.607Z,71.53
2024-02-24T23:24:37.634Z,72.15
2024-02-24T23:27:06.250Z,71.35
2024-02-24T23:29:33.773Z,71.93
2024-02-24T23:32:00.915Z,72.93
2024-02-24T23:34:28.014Z,73.38
2024-02-24T23:36:55.195Z,72.98
2024-02-24T23:39:22.884Z,72.92
2024-02-24T23:41:51.615Z,72.98
2024-02-24T23:44:21.174Z,73.25
2024-02-24T23:46:48.369Z,73.19
2024-02-24T23:49:17.152Z,76.20
2024-02-24T23:51:44.541Z,78.00
2024-02-24T23:54:11.689Z,78.47
2024-02-24T23:56:38.804Z,78.37
2024-02-24T23:59:08.381Z,77.79
